sensor_id;sensor_type;location;lat;lon;timestamp;temperature;humidity
24158;DHT22;12316;50.904;4.200;2022-09-02T00:01:44;19.20;86.90
24158;DHT22;12316;50.904;4.200;2022-09-02T00:04:14;19.20;87.00
24158;DHT22;12316;50.904;4.200;2022-09-02T00:06:42;19.20;87.10
24158;DHT22;12316;50.904;4.200;2022-09-02T00:09:10;19.10;87.40
24158;DHT22;12316;50.904;4.200;2022-09-02T00:11:37;19.10;87.60
24158;DHT22;12316;50.904;4.200;2022-09-02T00:14:06;19.10;87.70
24158;DHT22;12316;50.904;4.200;2022-09-02T00:16:33;19.10;87.70
24158;DHT22;12316;50.904;4.200;2022-09-02T00:19:02;19.10;87.70
24158;DHT22;12316;50.904;4.200;2022-09-02T00:21:29;19.10;87.40
24158;DHT22;12316;50.904;4.200;2022-09-02T00:23:55;19.10;87.50
24158;DHT22;12316;50.904;4.200;2022-09-02T00:26:20;19.10;87.60
24158;DHT22;12316;50.904;4.200;2022-09-02T00:28:47;19.10;87.50
24158;DHT22;12316;50.904;4.200;2022-09-02T00:31:13;19.00;87.70
24158;DHT22;12316;50.904;4.200;2022-09-02T00:33:39;19.00;87.70
24158;DHT22;12316;50.904;4.200;2022-09-02T00:36:06;19.00;87.80
24158;DHT22;12316;50.904;4.200;2022-09-02T00:38:33;19.00;88.20
24158;DHT22;12316;50.904;4.200;2022-09-02T00:41:02;18.90;88.20
24158;DHT22;12316;50.904;4.200;2022-09-02T00:43:47;18.90;88.30
24158;DHT22;12316;50.904;4.200;2022-09-02T00:46:21;18.80;88.70
24158;DHT22;12316;50.904;4.200;2022-09-02T00:51:41;18.80;89.00
24158;DHT22;12316;50.904;4.200;2022-09-02T00:54:07;18.80;89.00
24158;DHT22;12316;50.904;4.200;2022-09-02T00:56:36;18.80;89.00
24158;DHT22;12316;50.904;4.200;2022-09-02T00:59:02;18.80;89.00
24158;DHT22;12316;50.904;4.200;2022-09-02T01:01:28;18.70;89.20
24158;DHT22;12316;50.904;4.200;2022-09-02T01:03:54;18.70;89.50
24158;DHT22;12316;50.904;4.200;2022-09-02T01:06:24;18.60;90.00
24158;DHT22;12316;50.904;4.200;2022-09-02T01:08:56;18.60;90.00
24158;DHT22;12316;50.904;4.200;2022-09-02T01:11:28;18.60;90.00
24158;DHT22;12316;50.904;4.200;2022-09-02T01:13:56;18.60;90.00
24158;DHT22;12316;50.904;4.200;2022-09-02T01:16:27;18.60;90.10
24158;DHT22;12316;50.904;4.200;2022-09-02T01:18:57;18.50;90.40
24158;DHT22;12316;50.904;4.200;2022-09-02T01:21:23;18.40;90.50
24158;DHT22;12316;50.904;4.200;2022-09-02T01:23:50;18.40;90.50
24158;DHT22;12316;50.904;4.200;2022-09-02T01:26:16;18.40;90.50
24158;DHT22;12316;50.904;4.200;2022-09-02T01:28:42;18.40;90.70
24158;DHT22;12316;50.904;4.200;2022-09-02T01:31:08;18.40;90.60
24158;DHT22;12316;50.904;4.200;2022-09-02T01:33:34;18.40;90.60
24158;DHT22;12316;50.904;4.200;2022-09-02T01:36:00;18.30;90.70
24158;DHT22;12316;50.904;4.200;2022-09-02T01:38:30;18.30;90.80
24158;DHT22;12316;50.904;4.200;2022-09-02T01:40:56;18.30;90.80
24158;DHT22;12316;50.904;4.200;2022-09-02T01:43:24;18.30;90.80
24158;DHT22;12316;50.904;4.200;2022-09-02T01:45:53;18.30;90.80
24158;DHT22;12316;50.904;4.200;2022-09-02T01:48:20;18.30;90.90
24158;DHT22;12316;50.904;4.200;2022-09-02T01:50:50;18.30;91.00
24158;DHT22;12316;50.904;4.200;2022-09-02T01:53:16;18.30;90.90
24158;DHT22;12316;50.904;4.200;2022-09-02T01:55:42;18.20;90.70
24158;DHT22;12316;50.904;4.200;2022-09-02T01:58:08;18.20;90.80
24158;DHT22;12316;50.904;4.200;2022-09-02T02:00:34;18.20;90.90
24158;DHT22;12316;50.904;4.200;2022-09-02T02:03:01;18.20;91.20
24158;DHT22;12316;50.904;4.200;2022-09-02T02:05:28;18.20;91.00
24158;DHT22;12316;50.904;4.200;2022-09-02T02:07:54;18.20;91.00
24158;DHT22;12316;50.904;4.200;2022-09-02T02:10:20;18.20;91.00
24158;DHT22;12316;50.904;4.200;2022-09-02T02:12:46;18.10;91.10
24158;DHT22;12316;50.904;4.200;2022-09-02T02:15:14;18.20;91.10
24158;DHT22;12316;50.904;4.200;2022-09-02T02:17:40;18.10;91.10
24158;DHT22;12316;50.904;4.200;2022-09-02T02:20:07;18.10;91.10
24158;DHT22;12316;50.904;4.200;2022-09-02T02:22:34;18.10;91.10
24158;DHT22;12316;50.904;4.200;2022-09-02T02:24:59;18.10;91.20
24158;DHT22;12316;50.904;4.200;2022-09-02T02:27:25;18.00;91.20
24158;DHT22;12316;50.904;4.200;2022-09-02T02:29:50;18.00;91.20
24158;DHT22;12316;50.904;4.200;2022-09-02T02:32:17;18.00;91.20
24158;DHT22;12316;50.904;4.200;2022-09-02T02:34:44;18.00;91.20
24158;DHT22;12316;50.904;4.200;2022-09-02T02:37:10;18.00;91.20
24158;DHT22;12316;50.904;4.200;2022-09-02T02:39:41;18.00;91.30
24158;DHT22;12316;50.904;4.200;2022-09-02T02:42:07;17.90;91.20
24158;DHT22;12316;50.904;4.200;2022-09-02T02:44:33;18.00;91.30
24158;DHT22;12316;50.904;4.200;2022-09-02T02:47:00;17.90;91.30
24158;DHT22;12316;50.904;4.200;2022-09-02T02:55:24;17.80;91.40
24158;DHT22;12316;50.904;4.200;2022-09-02T02:57:50;17.80;91.70
24158;DHT22;12316;50.904;4.200;2022-09-02T03:06:13;17.60;92.50
24158;DHT22;12316;50.904;4.200;2022-09-02T03:14:20;17.50;92.70
24158;DHT22;12316;50.904;4.200;2022-09-02T03:22:44;17.30;92.90
24158;DHT22;12316;50.904;4.200;2022-09-02T03:25:11;17.40;93.00
24158;DHT22;12316;50.904;4.200;2022-09-02T03:27:38;17.30;93.30
24158;DHT22;12316;50.904;4.200;2022-09-02T03:30:06;17.30;93.50
24158;DHT22;12316;50.904;4.200;2022-09-02T03:32:32;17.20;93.60
24158;DHT22;12316;50.904;4.200;2022-09-02T03:34:59;17.20;93.60
24158;DHT22;12316;50.904;4.200;2022-09-02T03:37:25;17.20;93.80
24158;DHT22;12316;50.904;4.200;2022-09-02T03:39:50;17.20;93.70
24158;DHT22;12316;50.904;4.200;2022-09-02T03:42:17;17.20;93.80
24158;DHT22;12316;50.904;4.200;2022-09-02T03:44:43;17.20;93.90
24158;DHT22;12316;50.904;4.200;2022-09-02T03:47:08;17.10;94.20
24158;DHT22;12316;50.904;4.200;2022-09-02T03:49:35;17.10;94.30
24158;DHT22;12316;50.904;4.200;2022-09-02T03:52:01;17.00;94.30
24158;DHT22;12316;50.904;4.200;2022-09-02T03:54:26;17.10;94.30
24158;DHT22;12316;50.904;4.200;2022-09-02T03:56:53;17.10;94.30
24158;DHT22;12316;50.904;4.200;2022-09-02T03:59:19;17.10;94.30
24158;DHT22;12316;50.904;4.200;2022-09-02T04:01:44;17.10;94.30
24158;DHT22;12316;50.904;4.200;2022-09-02T04:04:10;17.10;94.30
24158;DHT22;12316;50.904;4.200;2022-09-02T04:06:36;17.10;94.30
24158;DHT22;12316;50.904;4.200;2022-09-02T04:09:03;17.10;94.20
24158;DHT22;12316;50.904;4.200;2022-09-02T04:11:28;17.10;94.10
24158;DHT22;12316;50.904;4.200;2022-09-02T04:13:54;17.20;94.10
24158;DHT22;12316;50.904;4.200;2022-09-02T04:16:23;17.10;94.00
24158;DHT22;12316;50.904;4.200;2022-09-02T04:18:54;17.10;94.10
24158;DHT22;12316;50.904;4.200;2022-09-02T04:21:19;17.20;94.10
24158;DHT22;12316;50.904;4.200;2022-09-02T04:23:46;17.20;94.10
24158;DHT22;12316;50.904;4.200;2022-09-02T04:26:14;17.20;94.20
24158;DHT22;12316;50.904;4.200;2022-09-02T04:28:41;17.20;94.20
24158;DHT22;12316;50.904;4.200;2022-09-02T04:31:08;17.20;94.30
24158;DHT22;12316;50.904;4.200;2022-09-02T04:33:35;17.30;94.40
24158;DHT22;12316;50.904;4.200;2022-09-02T04:36:05;17.30;94.40
24158;DHT22;12316;50.904;4.200;2022-09-02T04:38:31;17.30;94.50
24158;DHT22;12316;50.904;4.200;2022-09-02T04:40:57;17.30;94.40
24158;DHT22;12316;50.904;4.200;2022-09-02T04:43:23;17.40;94.30
24158;DHT22;12316;50.904;4.200;2022-09-02T04:45:49;17.40;94.60
24158;DHT22;12316;50.904;4.200;2022-09-02T04:48:16;17.40;94.30
24158;DHT22;12316;50.904;4.200;2022-09-02T04:50:41;17.40;94.30
24158;DHT22;12316;50.904;4.200;2022-09-02T04:53:08;17.40;94.30
24158;DHT22;12316;50.904;4.200;2022-09-02T04:55:34;17.40;94.40
24158;DHT22;12316;50.904;4.200;2022-09-02T04:58:02;17.40;94.60
24158;DHT22;12316;50.904;4.200;2022-09-02T05:00:27;17.40;94.70
24158;DHT22;12316;50.904;4.200;2022-09-02T05:02:53;17.50;94.70
24158;DHT22;12316;50.904;4.200;2022-09-02T05:05:19;17.50;94.60
24158;DHT22;12316;50.904;4.200;2022-09-02T05:07:44;17.50;94.40
24158;DHT22;12316;50.904;4.200;2022-09-02T05:10:10;17.60;94.50
24158;DHT22;12316;50.904;4.200;2022-09-02T05:12:38;17.60;94.50
24158;DHT22;12316;50.904;4.200;2022-09-02T05:15:07;17.60;94.40
24158;DHT22;12316;50.904;4.200;2022-09-02T05:17:33;17.60;94.50
24158;DHT22;12316;50.904;4.200;2022-09-02T05:20:00;17.60;94.50
24158;DHT22;12316;50.904;4.200;2022-09-02T05:22:26;17.60;94.70
24158;DHT22;12316;50.904;4.200;2022-09-02T05:24:54;17.60;94.80
24158;DHT22;12316;50.904;4.200;2022-09-02T05:27:20;17.60;94.80
24158;DHT22;12316;50.904;4.200;2022-09-02T05:29:45;17.60;95.00
24158;DHT22;12316;50.904;4.200;2022-09-02T05:32:11;17.60;95.10
24158;DHT22;12316;50.904;4.200;2022-09-02T05:34:37;17.60;95.20
24158;DHT22;12316;50.904;4.200;2022-09-02T05:37:04;17.60;95.40
24158;DHT22;12316;50.904;4.200;2022-09-02T05:39:30;17.60;95.40
24158;DHT22;12316;50.904;4.200;2022-09-02T05:41:56;17.70;95.70
24158;DHT22;12316;50.904;4.200;2022-09-02T05:44:22;17.70;95.30
24158;DHT22;12316;50.904;4.200;2022-09-02T05:46:47;17.80;95.30
24158;DHT22;12316;50.904;4.200;2022-09-02T05:49:13;17.90;95.30
24158;DHT22;12316;50.904;4.200;2022-09-02T05:51:50;17.90;95.20
24158;DHT22;12316;50.904;4.200;2022-09-02T05:54:29;18.00;95.30
24158;DHT22;12316;50.904;4.200;2022-09-02T05:56:57;18.20;95.70
24158;DHT22;12316;50.904;4.200;2022-09-02T05:59:25;18.40;95.90
24158;DHT22;12316;50.904;4.200;2022-09-02T06:01:52;18.60;95.90
24158;DHT22;12316;50.904;4.200;2022-09-02T06:04:18;18.80;95.70
24158;DHT22;12316;50.904;4.200;2022-09-02T06:06:45;19.00;95.50
24158;DHT22;12316;50.904;4.200;2022-09-02T06:09:15;19.20;95.10
24158;DHT22;12316;50.904;4.200;2022-09-02T06:11:42;19.50;94.60
24158;DHT22;12316;50.904;4.200;2022-09-02T06:14:14;19.70;94.30
24158;DHT22;12316;50.904;4.200;2022-09-02T06:16:42;19.90;94.00
24158;DHT22;12316;50.904;4.200;2022-09-02T06:19:08;20.10;93.70
24158;DHT22;12316;50.904;4.200;2022-09-02T06:21:35;20.30;93.40
24158;DHT22;12316;50.904;4.200;2022-09-02T06:24:03;20.50;93.00
24158;DHT22;12316;50.904;4.200;2022-09-02T06:26:28;20.60;92.60
24158;DHT22;12316;50.904;4.200;2022-09-02T06:28:54;20.60;92.20
24158;DHT22;12316;50.904;4.200;2022-09-02T06:31:21;20.60;92.10
24158;DHT22;12316;50.904;4.200;2022-09-02T06:33:50;20.60;92.20
24158;DHT22;12316;50.904;4.200;2022-09-02T06:36:16;20.60;92.20
24158;DHT22;12316;50.904;4.200;2022-09-02T06:38:44;20.60;92.30
24158;DHT22;12316;50.904;4.200;2022-09-02T06:41:13;20.60;92.30
24158;DHT22;12316;50.904;4.200;2022-09-02T06:43:38;20.60;92.40
24158;DHT22;12316;50.904;4.200;2022-09-02T06:46:05;20.70;92.40
24158;DHT22;12316;50.904;4.200;2022-09-02T06:48:30;20.70;92.40
24158;DHT22;12316;50.904;4.200;2022-09-02T06:50:56;20.80;92.30
24158;DHT22;12316;50.904;4.200;2022-09-02T06:53:22;20.80;92.40
24158;DHT22;12316;50.904;4.200;2022-09-02T06:55:49;20.80;92.50
24158;DHT22;12316;50.904;4.200;2022-09-02T06:58:15;20.90;92.50
24158;DHT22;12316;50.904;4.200;2022-09-02T07:00:42;21.00;92.50
24158;DHT22;12316;50.904;4.200;2022-09-02T07:03:08;21.00;92.50
24158;DHT22;12316;50.904;4.200;2022-09-02T07:06:09;21.00;92.60
24158;DHT22;12316;50.904;4.200;2022-09-02T07:08:39;21.10;92.50
24158;DHT22;12316;50.904;4.200;2022-09-02T07:11:07;21.10;92.50
24158;DHT22;12316;50.904;4.200;2022-09-02T07:13:39;21.20;92.50
24158;DHT22;12316;50.904;4.200;2022-09-02T07:16:04;21.30;92.60
24158;DHT22;12316;50.904;4.200;2022-09-02T07:18:32;21.40;92.40
24158;DHT22;12316;50.904;4.200;2022-09-02T07:20:58;21.50;92.30
24158;DHT22;12316;50.904;4.200;2022-09-02T07:23:23;21.60;92.00
24158;DHT22;12316;50.904;4.200;2022-09-02T07:25:49;21.70;91.90
24158;DHT22;12316;50.904;4.200;2022-09-02T07:28:14;21.80;91.60
24158;DHT22;12316;50.904;4.200;2022-09-02T07:30:42;21.80;91.30
24158;DHT22;12316;50.904;4.200;2022-09-02T07:33:09;21.80;91.30
24158;DHT22;12316;50.904;4.200;2022-09-02T07:35:36;21.90;91.30
24158;DHT22;12316;50.904;4.200;2022-09-02T07:38:03;21.90;91.40
24158;DHT22;12316;50.904;4.200;2022-09-02T07:40:29;22.10;91.20
24158;DHT22;12316;50.904;4.200;2022-09-02T07:42:54;22.10;90.90
24158;DHT22;12316;50.904;4.200;2022-09-02T07:45:20;22.20;90.80
24158;DHT22;12316;50.904;4.200;2022-09-02T07:47:46;22.20;90.80
24158;DHT22;12316;50.904;4.200;2022-09-02T07:50:14;22.30;91.00
24158;DHT22;12316;50.904;4.200;2022-09-02T07:52:41;22.50;90.70
24158;DHT22;12316;50.904;4.200;2022-09-02T07:55:06;22.60;90.30
24158;DHT22;12316;50.904;4.200;2022-09-02T07:57:32;22.70;90.30
24158;DHT22;12316;50.904;4.200;2022-09-02T07:59:58;22.80;90.30
24158;DHT22;12316;50.904;4.200;2022-09-02T08:02:23;22.80;89.80
24158;DHT22;12316;50.904;4.200;2022-09-02T08:04:49;22.80;89.60
24158;DHT22;12316;50.904;4.200;2022-09-02T08:07:15;22.90;90.20
24158;DHT22;12316;50.904;4.200;2022-09-02T08:09:43;22.90;89.40
24158;DHT22;12316;50.904;4.200;2022-09-02T08:12:08;23.00;89.60
24158;DHT22;12316;50.904;4.200;2022-09-02T08:14:34;23.10;89.60
24158;DHT22;12316;50.904;4.200;2022-09-02T08:17:00;23.20;89.20
24158;DHT22;12316;50.904;4.200;2022-09-02T08:19:26;23.30;88.80
24158;DHT22;12316;50.904;4.200;2022-09-02T08:21:51;23.40;88.40
24158;DHT22;12316;50.904;4.200;2022-09-02T08:24:17;23.40;88.30
24158;DHT22;12316;50.904;4.200;2022-09-02T08:26:42;23.50;88.40
24158;DHT22;12316;50.904;4.200;2022-09-02T08:29:08;23.60;88.80
24158;DHT22;12316;50.904;4.200;2022-09-02T08:31:36;23.90;88.80
24158;DHT22;12316;50.904;4.200;2022-09-02T08:34:02;24.00;88.30
24158;DHT22;12316;50.904;4.200;2022-09-02T08:36:28;24.20;87.70
24158;DHT22;12316;50.904;4.200;2022-09-02T08:38:54;24.20;86.50
24158;DHT22;12316;50.904;4.200;2022-09-02T08:41:24;24.20;87.40
24158;DHT22;12316;50.904;4.200;2022-09-02T08:43:53;24.30;86.40
24158;DHT22;12316;50.904;4.200;2022-09-02T08:46:20;24.40;86.40
24158;DHT22;12316;50.904;4.200;2022-09-02T08:48:57;24.50;86.10
24158;DHT22;12316;50.904;4.200;2022-09-02T08:51:46;24.50;85.50
24158;DHT22;12316;50.904;4.200;2022-09-02T08:54:35;24.50;85.40
24158;DHT22;12316;50.904;4.200;2022-09-02T08:57:04;24.50;85.90
24158;DHT22;12316;50.904;4.200;2022-09-02T08:59:30;24.60;85.20
24158;DHT22;12316;50.904;4.200;2022-09-02T09:02:20;24.70;85.50
24158;DHT22;12316;50.904;4.200;2022-09-02T09:05:04;24.90;85.90
24158;DHT22;12316;50.904;4.200;2022-09-02T09:10:19;25.00;84.90
24158;DHT22;12316;50.904;4.200;2022-09-02T09:18:07;25.20;84.30
24158;DHT22;12316;50.904;4.200;2022-09-02T09:20:37;25.30;84.30
24158;DHT22;12316;50.904;4.200;2022-09-02T09:25:51;25.60;83.70
24158;DHT22;12316;50.904;4.200;2022-09-02T09:28:18;25.60;83.30
24158;DHT22;12316;50.904;4.200;2022-09-02T09:30:43;25.60;82.50
24158;DHT22;12316;50.904;4.200;2022-09-02T09:33:14;25.60;83.00
24158;DHT22;12316;50.904;4.200;2022-09-02T09:35:52;25.70;83.50
24158;DHT22;12316;50.904;4.200;2022-09-02T09:38:30;25.80;83.10
24158;DHT22;12316;50.904;4.200;2022-09-02T09:41:20;26.00;83.00
24158;DHT22;12316;50.904;4.200;2022-09-02T09:43:47;26.00;82.50
24158;DHT22;12316;50.904;4.200;2022-09-02T09:46:33;26.20;82.10
24158;DHT22;12316;50.904;4.200;2022-09-02T09:48:59;26.30;81.90
24158;DHT22;12316;50.904;4.200;2022-09-02T09:51:25;26.30;81.50
24158;DHT22;12316;50.904;4.200;2022-09-02T09:53:50;26.40;81.90
24158;DHT22;12316;50.904;4.200;2022-09-02T09:58:45;26.70;81.50
24158;DHT22;12316;50.904;4.200;2022-09-02T10:01:17;26.80;80.40
24158;DHT22;12316;50.904;4.200;2022-09-02T10:04:24;26.90;80.30
24158;DHT22;12316;50.904;4.200;2022-09-02T10:06:41;27.00;80.10
24158;DHT22;12316;50.904;4.200;2022-09-02T10:11:56;27.10;79.40
24158;DHT22;12316;50.904;4.200;2022-09-02T10:14:22;27.30;79.30
24158;DHT22;12316;50.904;4.200;2022-09-02T10:17:05;27.30;78.50
24158;DHT22;12316;50.904;4.200;2022-09-02T10:25:25;27.30;78.20
24158;DHT22;12316;50.904;4.200;2022-09-02T10:28:01;27.30;77.80
24158;DHT22;12316;50.904;4.200;2022-09-02T10:30:39;27.20;78.40
24158;DHT22;12316;50.904;4.200;2022-09-02T10:33:21;27.10;77.70
24158;DHT22;12316;50.904;4.200;2022-09-02T10:36:17;27.00;77.70
24158;DHT22;12316;50.904;4.200;2022-09-02T10:38:46;27.00;78.00
24158;DHT22;12316;50.904;4.200;2022-09-02T10:46:31;26.90;78.30
24158;DHT22;12316;50.904;4.200;2022-09-02T10:49:06;26.90;78.50
24158;DHT22;12316;50.904;4.200;2022-09-02T10:51:44;26.70;78.60
24158;DHT22;12316;50.904;4.200;2022-09-02T10:57:05;26.90;77.90
24158;DHT22;12316;50.904;4.200;2022-09-02T11:00:23;27.10;77.80
24158;DHT22;12316;50.904;4.200;2022-09-02T11:02:31;27.10;77.70
24158;DHT22;12316;50.904;4.200;2022-09-02T11:10:25;27.20;76.80
24158;DHT22;12316;50.904;4.200;2022-09-02T11:12:59;27.30;76.50
24158;DHT22;12316;50.904;4.200;2022-09-02T11:18:30;27.40;76.00
24158;DHT22;12316;50.904;4.200;2022-09-02T11:21:03;27.40;75.60
24158;DHT22;12316;50.904;4.200;2022-09-02T11:23:50;27.40;75.30
24158;DHT22;12316;50.904;4.200;2022-09-02T11:26:23;27.20;75.50
24158;DHT22;12316;50.904;4.200;2022-09-02T11:29:13;27.20;75.10
24158;DHT22;12316;50.904;4.200;2022-09-02T11:31:50;27.40;76.10
24158;DHT22;12316;50.904;4.200;2022-09-02T11:34:36;27.50;75.00
24158;DHT22;12316;50.904;4.200;2022-09-02T11:37:06;27.60;73.60
24158;DHT22;12316;50.904;4.200;2022-09-02T11:39:40;27.80;74.30
24158;DHT22;12316;50.904;4.200;2022-09-02T11:42:49;28.00;73.20
24158;DHT22;12316;50.904;4.200;2022-09-02T11:50:51;28.80;71.80
24158;DHT22;12316;50.904;4.200;2022-09-02T11:53:23;28.80;70.80
24158;DHT22;12316;50.904;4.200;2022-09-02T11:58:36;28.80;71.40
24158;DHT22;12316;50.904;4.200;2022-09-02T12:01:18;28.70;70.90
24158;DHT22;12316;50.904;4.200;2022-09-02T12:09:44;29.00;68.90
24158;DHT22;12316;50.904;4.200;2022-09-02T12:23:08;29.90;67.80
24158;DHT22;12316;50.904;4.200;2022-09-02T12:25:47;30.10;66.60
24158;DHT22;12316;50.904;4.200;2022-09-02T12:28:26;29.90;65.20
24158;DHT22;12316;50.904;4.200;2022-09-02T12:33:30;29.50;65.80
24158;DHT22;12316;50.904;4.200;2022-09-02T12:35:56;29.40;65.90
24158;DHT22;12316;50.904;4.200;2022-09-02T12:38:26;29.30;66.40
24158;DHT22;12316;50.904;4.200;2022-09-02T12:40:54;29.40;67.00
24158;DHT22;12316;50.904;4.200;2022-09-02T12:43:30;29.40;65.50
24158;DHT22;12316;50.904;4.200;2022-09-02T12:46:20;29.30;65.70
24158;DHT22;12316;50.904;4.200;2022-09-02T12:49:04;29.30;65.50
24158;DHT22;12316;50.904;4.200;2022-09-02T12:51:56;29.30;65.30
24158;DHT22;12316;50.904;4.200;2022-09-02T12:54:52;29.30;64.70
24158;DHT22;12316;50.904;4.200;2022-09-02T12:57:17;29.10;64.60
24158;DHT22;12316;50.904;4.200;2022-09-02T12:59:45;29.00;64.30
24158;DHT22;12316;50.904;4.200;2022-09-02T13:05:09;28.90;63.90
24158;DHT22;12316;50.904;4.200;2022-09-02T13:16:13;29.00;62.20
24158;DHT22;12316;50.904;4.200;2022-09-02T13:21:30;29.00;62.70
24158;DHT22;12316;50.904;4.200;2022-09-02T13:24:28;29.10;63.00
24158;DHT22;12316;50.904;4.200;2022-09-02T13:27:25;29.30;63.80
24158;DHT22;12316;50.904;4.200;2022-09-02T13:32:40;29.60;62.20
24158;DHT22;12316;50.904;4.200;2022-09-02T13:35:18;29.70;62.80
24158;DHT22;12316;50.904;4.200;2022-09-02T13:37:55;29.90;61.70
24158;DHT22;12316;50.904;4.200;2022-09-02T13:40:32;30.00;62.20
24158;DHT22;12316;50.904;4.200;2022-09-02T13:43:08;30.30;62.00
24158;DHT22;12316;50.904;4.200;2022-09-02T13:45:41;30.30;60.20
24158;DHT22;12316;50.904;4.200;2022-09-02T13:50:47;30.20;59.90
24158;DHT22;12316;50.904;4.200;2022-09-02T13:53:35;30.10;60.50
24158;DHT22;12316;50.904;4.200;2022-09-02T13:56:05;30.00;60.50
24158;DHT22;12316;50.904;4.200;2022-09-02T13:58:39;30.10;60.40
24158;DHT22;12316;50.904;4.200;2022-09-02T14:03:48;30.40;60.50
24158;DHT22;12316;50.904;4.200;2022-09-02T14:06:19;30.60;59.30
24158;DHT22;12316;50.904;4.200;2022-09-02T14:08:51;30.50;58.30
24158;DHT22;12316;50.904;4.200;2022-09-02T14:11:18;30.30;58.50
24158;DHT22;12316;50.904;4.200;2022-09-02T14:13:48;30.50;58.60
24158;DHT22;12316;50.904;4.200;2022-09-02T14:16:30;30.50;58.60
24158;DHT22;12316;50.904;4.200;2022-09-02T14:21:37;31.20;59.00
24158;DHT22;12316;50.904;4.200;2022-09-02T14:24:12;31.40;57.20
24158;DHT22;12316;50.904;4.200;2022-09-02T14:26:42;31.30;57.50
24158;DHT22;12316;50.904;4.200;2022-09-02T14:29:12;31.50;58.10
24158;DHT22;12316;50.904;4.200;2022-09-02T14:31:38;31.70;57.20
24158;DHT22;12316;50.904;4.200;2022-09-02T14:34:30;31.70;56.10
24158;DHT22;12316;50.904;4.200;2022-09-02T14:36:56;31.60;56.10
24158;DHT22;12316;50.904;4.200;2022-09-02T14:39:22;31.60;56.60
24158;DHT22;12316;50.904;4.200;2022-09-02T14:41:53;31.70;56.30
24158;DHT22;12316;50.904;4.200;2022-09-02T14:44:33;31.80;56.00
24158;DHT22;12316;50.904;4.200;2022-09-02T14:47:03;31.80;55.60
24158;DHT22;12316;50.904;4.200;2022-09-02T14:49:35;31.90;55.60
24158;DHT22;12316;50.904;4.200;2022-09-02T14:52:27;32.10;55.70
24158;DHT22;12316;50.904;4.200;2022-09-02T14:54:54;32.10;54.50
24158;DHT22;12316;50.904;4.200;2022-09-02T14:57:33;32.00;55.80
24158;DHT22;12316;50.904;4.200;2022-09-02T15:00:12;31.90;55.70
24158;DHT22;12316;50.904;4.200;2022-09-02T15:02:41;31.80;54.90
24158;DHT22;12316;50.904;4.200;2022-09-02T15:05:11;31.70;54.80
24158;DHT22;12316;50.904;4.200;2022-09-02T15:07:40;31.60;54.40
24158;DHT22;12316;50.904;4.200;2022-09-02T15:10:06;31.50;55.00
24158;DHT22;12316;50.904;4.200;2022-09-02T15:12:51;31.40;54.80
24158;DHT22;12316;50.904;4.200;2022-09-02T15:15:19;31.40;55.20
24158;DHT22;12316;50.904;4.200;2022-09-02T15:17:44;31.40;54.40
24158;DHT22;12316;50.904;4.200;2022-09-02T15:20:11;31.40;54.40
24158;DHT22;12316;50.904;4.200;2022-09-02T15:22:37;31.30;54.60
24158;DHT22;12316;50.904;4.200;2022-09-02T15:25:04;31.20;54.70
24158;DHT22;12316;50.904;4.200;2022-09-02T15:27:32;31.10;54.80
24158;DHT22;12316;50.904;4.200;2022-09-02T15:29:59;31.00;54.80
24158;DHT22;12316;50.904;4.200;2022-09-02T15:32:25;31.00;54.90
24158;DHT22;12316;50.904;4.200;2022-09-02T15:34:51;31.00;55.90
24158;DHT22;12316;50.904;4.200;2022-09-02T15:37:17;30.90;55.30
24158;DHT22;12316;50.904;4.200;2022-09-02T15:39:43;30.80;54.70
24158;DHT22;12316;50.904;4.200;2022-09-02T15:42:08;30.70;54.30
24158;DHT22;12316;50.904;4.200;2022-09-02T15:44:34;30.60;54.90
24158;DHT22;12316;50.904;4.200;2022-09-02T15:47:00;30.40;54.80
24158;DHT22;12316;50.904;4.200;2022-09-02T15:49:26;30.30;54.60
24158;DHT22;12316;50.904;4.200;2022-09-02T15:51:52;30.40;55.40
24158;DHT22;12316;50.904;4.200;2022-09-02T15:54:20;30.30;54.60
24158;DHT22;12316;50.904;4.200;2022-09-02T15:56:47;30.30;54.90
24158;DHT22;12316;50.904;4.200;2022-09-02T15:59:13;30.30;55.10
24158;DHT22;12316;50.904;4.200;2022-09-02T16:01:42;30.30;56.20
24158;DHT22;12316;50.904;4.200;2022-09-02T16:04:08;30.40;57.00
24158;DHT22;12316;50.904;4.200;2022-09-02T16:06:35;30.40;55.90
24158;DHT22;12316;50.904;4.200;2022-09-02T16:09:04;30.40;55.50
24158;DHT22;12316;50.904;4.200;2022-09-02T16:11:30;30.40;55.80
24158;DHT22;12316;50.904;4.200;2022-09-02T16:13:55;30.30;55.20
24158;DHT22;12316;50.904;4.200;2022-09-02T16:16:21;30.40;55.80
24158;DHT22;12316;50.904;4.200;2022-09-02T16:18:51;30.40;56.00
24158;DHT22;12316;50.904;4.200;2022-09-02T16:21:18;30.40;55.80
24158;DHT22;12316;50.904;4.200;2022-09-02T16:23:44;30.40;56.00
24158;DHT22;12316;50.904;4.200;2022-09-02T16:26:16;30.30;55.20
24158;DHT22;12316;50.904;4.200;2022-09-02T16:28:45;30.30;55.70
24158;DHT22;12316;50.904;4.200;2022-09-02T16:31:14;30.10;54.90
24158;DHT22;12316;50.904;4.200;2022-09-02T16:34:00;30.00;54.50
24158;DHT22;12316;50.904;4.200;2022-09-02T16:36:28;29.70;54.30
24158;DHT22;12316;50.904;4.200;2022-09-02T16:38:55;29.60;55.00
24158;DHT22;12316;50.904;4.200;2022-09-02T16:41:35;29.40;55.50
24158;DHT22;12316;50.904;4.200;2022-09-02T16:44:04;29.40;56.30
24158;DHT22;12316;50.904;4.200;2022-09-02T16:46:33;29.40;56.90
24158;DHT22;12316;50.904;4.200;2022-09-02T16:48:59;29.30;57.00
24158;DHT22;12316;50.904;4.200;2022-09-02T16:51:25;29.30;57.00
24158;DHT22;12316;50.904;4.200;2022-09-02T16:54:00;29.30;57.00
24158;DHT22;12316;50.904;4.200;2022-09-02T16:56:26;29.20;57.20
24158;DHT22;12316;50.904;4.200;2022-09-02T16:58:53;29.10;57.40
24158;DHT22;12316;50.904;4.200;2022-09-02T17:01:20;29.00;57.80
24158;DHT22;12316;50.904;4.200;2022-09-02T17:03:46;28.90;57.80
24158;DHT22;12316;50.904;4.200;2022-09-02T17:06:12;28.80;57.70
24158;DHT22;12316;50.904;4.200;2022-09-02T17:08:38;28.70;58.00
24158;DHT22;12316;50.904;4.200;2022-09-02T17:11:30;28.60;57.60
24158;DHT22;12316;50.904;4.200;2022-09-02T17:16:32;28.40;64.60
24158;DHT22;12316;50.904;4.200;2022-09-02T17:18:59;28.20;66.00
24158;DHT22;12316;50.904;4.200;2022-09-02T17:21:42;28.00;66.60
24158;DHT22;12316;50.904;4.200;2022-09-02T17:24:09;27.80;67.20
24158;DHT22;12316;50.904;4.200;2022-09-02T17:26:37;27.70;68.10
24158;DHT22;12316;50.904;4.200;2022-09-02T17:29:08;27.50;68.70
24158;DHT22;12316;50.904;4.200;2022-09-02T17:31:34;27.40;68.90
24158;DHT22;12316;50.904;4.200;2022-09-02T17:34:02;27.30;69.30
24158;DHT22;12316;50.904;4.200;2022-09-02T17:36:30;27.30;69.90
24158;DHT22;12316;50.904;4.200;2022-09-02T17:38:57;27.20;70.30
24158;DHT22;12316;50.904;4.200;2022-09-02T17:41:25;27.10;71.10
24158;DHT22;12316;50.904;4.200;2022-09-02T17:44:11;26.90;72.20
24158;DHT22;12316;50.904;4.200;2022-09-02T17:46:37;26.80;73.10